sensor_id;sensor_type;location;lat;lon;timestamp;pressure;altitude;pressure_sealevel;temperature;humidity
10992;BME280;5549;47.028;15.514;2022-12-07T00:01:45;96370.75;;;4.17;84.58
10992;BME280;5549;47.028;15.514;2022-12-07T00:04:17;96373.06;;;4.22;84.59
10992;BME280;5549;47.028;15.514;2022-12-07T00:06:51;96374.66;;;4.24;84.44
10992;BME280;5549;47.028;15.514;2022-12-07T00:09:23;96368.41;;;4.27;84.67
10992;BME280;5549;47.028;15.514;2022-12-07T00:11:52;96357.28;;;4.25;84.30
10992;BME280;5549;47.028;15.514;2022-12-07T00:14:21;96358.41;;;4.21;84.69
10992;BME280;5549;47.028;15.514;2022-12-07T00:16:51;96354.97;;;4.20;84.35
10992;BME280;5549;47.028;15.514;2022-12-07T00:19:20;96341.34;;;4.16;84.28
10992;BME280;5549;47.028;15.514;2022-12-07T00:21:50;96350.06;;;4.15;84.37
10992;BME280;5549;47.028;15.514;2022-12-07T00:24:19;96348.19;;;4.17;84.48
10992;BME280;5549;47.028;15.514;2022-12-07T00:26:49;96346.44;;;4.18;84.61
10992;BME280;5549;47.028;15.514;2022-12-07T00:29:21;96358.03;;;4.12;84.21
10992;BME280;5549;47.028;15.514;2022-12-07T00:31:51;96356.75;;;4.05;84.53
10992;BME280;5549;47.028;15.514;2022-12-07T00:34:20;96355.28;;;4.01;84.48
10992;BME280;5549;47.028;15.514;2022-12-07T00:36:51;96355.38;;;4.00;84.65
10992;BME280;5549;47.028;15.514;2022-12-07T00:39:19;96352.03;;;3.98;84.41
10992;BME280;5549;47.028;15.514;2022-12-07T00:41:46;96357.31;;;3.96;84.71
10992;BME280;5549;47.028;15.514;2022-12-07T00:44:17;96354.72;;;3.96;84.80
10992;BME280;5549;47.028;15.514;2022-12-07T00:46:45;96357.50;;;3.93;84.63
10992;BME280;5549;47.028;15.514;2022-12-07T00:49:12;96354.81;;;3.80;85.05
10992;BME280;5549;47.028;15.514;2022-12-07T00:51:40;96358.25;;;3.67;85.02
10992;BME280;5549;47.028;15.514;2022-12-07T00:54:09;96368.25;;;3.59;85.96
10992;BME280;5549;47.028;15.514;2022-12-07T00:56:37;96368.91;;;3.62;85.65
10992;BME280;5549;47.028;15.514;2022-12-07T00:59:05;96368.16;;;3.60;86.01
10992;BME280;5549;47.028;15.514;2022-12-07T01:01:36;96361.56;;;3.54;86.01
10992;BME280;5549;47.028;15.514;2022-12-07T01:04:14;96361.84;;;3.50;85.97
10992;BME280;5549;47.028;15.514;2022-12-07T01:06:46;96369.81;;;3.47;86.15
10992;BME280;5549;47.028;15.514;2022-12-07T01:09:26;96357.41;;;3.52;86.38
10992;BME280;5549;47.028;15.514;2022-12-07T01:11:56;96353.31;;;3.48;86.50
10992;BME280;5549;47.028;15.514;2022-12-07T01:14:30;96357.41;;;3.52;86.37
10992;BME280;5549;47.028;15.514;2022-12-07T01:17:05;96359.81;;;3.55;86.19
10992;BME280;5549;47.028;15.514;2022-12-07T01:19:38;96360.19;;;3.63;86.07
10992;BME280;5549;47.028;15.514;2022-12-07T01:22:06;96363.44;;;3.67;85.61
10992;BME280;5549;47.028;15.514;2022-12-07T01:24:44;96363.44;;;3.67;85.83
10992;BME280;5549;47.028;15.514;2022-12-07T01:27:15;96359.72;;;3.71;85.83
10992;BME280;5549;47.028;15.514;2022-12-07T01:29:51;96357.88;;;3.59;85.81
10992;BME280;5549;47.028;15.514;2022-12-07T01:32:21;96351.38;;;3.66;85.97
10992;BME280;5549;47.028;15.514;2022-12-07T01:34:50;96359.72;;;3.71;85.96
10992;BME280;5549;47.028;15.514;2022-12-07T01:37:19;96353.41;;;3.75;85.82
10992;BME280;5549;47.028;15.514;2022-12-07T01:39:51;96342.09;;;3.76;85.82
10992;BME280;5549;47.028;15.514;2022-12-07T01:42:24;96343.78;;;3.63;85.76
10992;BME280;5549;47.028;15.514;2022-12-07T01:45:37;96348.69;;;3.67;85.89
10992;BME280;5549;47.028;15.514;2022-12-07T01:48:13;96347.84;;;3.67;85.66
10992;BME280;5549;47.028;15.514;2022-12-07T01:50:46;96343.50;;;3.67;85.87
10992;BME280;5549;47.028;15.514;2022-12-07T01:53:19;96340.63;;;3.72;85.57
10992;BME280;5549;47.028;15.514;2022-12-07T01:55:50;96326.81;;;3.71;85.84
10992;BME280;5549;47.028;15.514;2022-12-07T01:58:20;96339.59;;;3.60;85.57
10992;BME280;5549;47.028;15.514;2022-12-07T02:00:53;96335.06;;;3.64;85.92
10992;BME280;5549;47.028;15.514;2022-12-07T02:03:30;96328.94;;;3.65;85.50
10992;BME280;5549;47.028;15.514;2022-12-07T02:06:03;96337.56;;;3.65;85.74
10992;BME280;5549;47.028;15.514;2022-12-07T02:08:32;96320.22;;;3.66;85.69
10992;BME280;5549;47.028;15.514;2022-12-07T02:11:06;96321.78;;;3.68;85.52
10992;BME280;5549;47.028;15.514;2022-12-07T02:13:36;96319.84;;;3.72;85.48
10992;BME280;5549;47.028;15.514;2022-12-07T02:16:23;96313.53;;;3.62;85.40
10992;BME280;5549;47.028;15.514;2022-12-07T02:19:09;96320.41;;;3.48;85.44
10992;BME280;5549;47.028;15.514;2022-12-07T02:21:51;96319.16;;;3.40;85.97
10992;BME280;5549;47.028;15.514;2022-12-07T02:24:48;96308.50;;;3.44;85.45
10992;BME280;5549;47.028;15.514;2022-12-07T02:27:43;96316.28;;;3.44;85.94
10992;BME280;5549;47.028;15.514;2022-12-07T02:30:15;96320.31;;;3.50;85.56
10992;BME280;5549;47.028;15.514;2022-12-07T02:32:50;96316.50;;;3.56;85.65
10992;BME280;5549;47.028;15.514;2022-12-07T02:35:28;96310.75;;;3.50;85.62
10992;BME280;5549;47.028;15.514;2022-12-07T02:38:06;96313.16;;;3.53;85.48
10992;BME280;5549;47.028;15.514;2022-12-07T02:40:41;96310.38;;;3.57;85.54
10992;BME280;5549;47.028;15.514;2022-12-07T02:43:16;96312.56;;;3.34;85.48
10992;BME280;5549;47.028;15.514;2022-12-07T02:45:48;96307.94;;;3.39;85.94
10992;BME280;5549;47.028;15.514;2022-12-07T02:48:19;96316.13;;;3.47;85.69
10992;BME280;5549;47.028;15.514;2022-12-07T02:50:52;96314.84;;;3.54;85.56
10992;BME280;5549;47.028;15.514;2022-12-07T02:53:35;96314.84;;;3.54;85.34
10992;BME280;5549;47.028;15.514;2022-12-07T02:56:16;96318.09;;;3.58;85.54
10992;BME280;5549;47.028;15.514;2022-12-07T02:59:00;96311.22;;;3.57;85.30
10992;BME280;5549;47.028;15.514;2022-12-07T03:01:39;96309.75;;;3.53;85.21
10992;BME280;5549;47.028;15.514;2022-12-07T03:04:24;96305.09;;;3.58;85.45
10992;BME280;5549;47.028;15.514;2022-12-07T03:07:03;96306.69;;;3.61;85.31
10992;BME280;5549;47.028;15.514;2022-12-07T03:09:37;96313.06;;;3.55;84.74
10992;BME280;5549;47.028;15.514;2022-12-07T03:12:16;96312.59;;;3.48;84.67
10992;BME280;5549;47.028;15.514;2022-12-07T03:14:52;96315.34;;;3.45;84.89
10992;BME280;5549;47.028;15.514;2022-12-07T03:17:30;96306.75;;;3.45;84.64
10992;BME280;5549;47.028;15.514;2022-12-07T03:20:04;96302.38;;;3.45;84.78
10992;BME280;5549;47.028;15.514;2022-12-07T03:22:38;96305.66;;;3.49;84.86
10992;BME280;5549;47.028;15.514;2022-12-07T03:25:15;96302.56;;;3.42;84.53
10992;BME280;5549;47.028;15.514;2022-12-07T03:27:49;96297.19;;;3.45;84.80
10992;BME280;5549;47.028;15.514;2022-12-07T03:30:21;96295.38;;;3.47;84.17
10992;BME280;5549;47.028;15.514;2022-12-07T03:33:01;96292.72;;;3.33;84.31
10992;BME280;5549;47.028;15.514;2022-12-07T03:35:39;96300.41;;;3.35;84.47
10992;BME280;5549;47.028;15.514;2022-12-07T03:38:17;96298.66;;;3.35;84.60
10992;BME280;5549;47.028;15.514;2022-12-07T03:40:52;96292.72;;;3.33;84.07
10992;BME280;5549;47.028;15.514;2022-12-07T03:43:22;96283.28;;;3.32;84.47
10992;BME280;5549;47.028;15.514;2022-12-07T03:46:00;96284.84;;;3.35;84.19
10992;BME280;5549;47.028;15.514;2022-12-07T03:48:37;96286.69;;;3.33;83.88
10992;BME280;5549;47.028;15.514;2022-12-07T03:51:18;96281.50;;;3.33;84.30
10992;BME280;5549;47.028;15.514;2022-12-07T03:53:54;96281.34;;;3.36;84.05
10992;BME280;5549;47.028;15.514;2022-12-07T03:56:28;96273.19;;;3.42;84.22
10992;BME280;5549;47.028;15.514;2022-12-07T03:58:56;96279.78;;;3.47;84.04
10992;BME280;5549;47.028;15.514;2022-12-07T04:01:25;96280.34;;;3.52;84.10
10992;BME280;5549;47.028;15.514;2022-12-07T04:03:57;96291.28;;;3.58;84.62
10992;BME280;5549;47.028;15.514;2022-12-07T04:06:27;96286.09;;;3.58;83.75
10992;BME280;5549;47.028;15.514;2022-12-07T04:08:57;96293.13;;;3.56;83.70
10992;BME280;5549;47.028;15.514;2022-12-07T04:11:25;96297.97;;;3.47;83.22
10992;BME280;5549;47.028;15.514;2022-12-07T04:13:52;96299.22;;;3.40;83.51
10992;BME280;5549;47.028;15.514;2022-12-07T04:16:40;96304.50;;;3.39;83.46
10992;BME280;5549;47.028;15.514;2022-12-07T04:19:10;96303.50;;;3.41;83.65
10992;BME280;5549;47.028;15.514;2022-12-07T04:21:38;96294.22;;;3.37;83.66
10992;BME280;5549;47.028;15.514;2022-12-07T04:24:06;96292.53;;;3.36;83.70
10992;BME280;5549;47.028;15.514;2022-12-07T04:26:37;96291.44;;;3.40;83.66
10992;BME280;5549;47.028;15.514;2022-12-07T04:29:05;96289.59;;;3.42;83.71
10992;BME280;5549;47.028;15.514;2022-12-07T04:31:36;96297.38;;;3.42;83.53
10992;BME280;5549;47.028;15.514;2022-12-07T04:34:05;96292.38;;;3.39;83.35
10992;BME280;5549;47.028;15.514;2022-12-07T04:36:35;96289.03;;;3.37;83.42
10992;BME280;5549;47.028;15.514;2022-12-07T04:39:04;96287.16;;;3.39;83.47
10992;BME280;5549;47.028;15.514;2022-12-07T04:41:33;96286.06;;;3.43;83.39
10992;BME280;5549;47.028;15.514;2022-12-07T04:44:04;96285.31;;;3.41;83.05
10992;BME280;5549;47.028;15.514;2022-12-07T04:46:34;96283.84;;;3.37;83.23
10992;BME280;5549;47.028;15.514;2022-12-07T04:49:04;96275.78;;;3.42;83.39
10992;BME280;5549;47.028;15.514;2022-12-07T04:51:35;96278.03;;;3.48;83.34
10992;BME280;5549;47.028;15.514;2022-12-07T04:54:03;96278.59;;;3.53;83.60
10992;BME280;5549;47.028;15.514;2022-12-07T04:56:33;96278.28;;;3.43;82.66
10992;BME280;5549;47.028;15.514;2022-12-07T04:59:03;96287.00;;;3.42;82.70
10992;BME280;5549;47.028;15.514;2022-12-07T05:01:35;96278.00;;;3.34;82.36
10992;BME280;5549;47.028;15.514;2022-12-07T05:04:03;96275.84;;;3.26;82.63
10992;BME280;5549;47.028;15.514;2022-12-07T05:06:32;96276.03;;;3.23;82.72
10992;BME280;5549;47.028;15.514;2022-12-07T05:09:04;96281.78;;;3.14;82.85
10992;BME280;5549;47.028;15.514;2022-12-07T05:11:36;96284.63;;;3.09;82.88
10992;BME280;5549;47.028;15.514;2022-12-07T05:14:12;96286.13;;;3.13;83.02
10992;BME280;5549;47.028;15.514;2022-12-07T05:16:41;96290.13;;;3.19;82.95
10992;BME280;5549;47.028;15.514;2022-12-07T05:19:10;96286.78;;;3.17;82.83
10992;BME280;5549;47.028;15.514;2022-12-07T05:21:40;96288.44;;;3.04;82.59
10992;BME280;5549;47.028;15.514;2022-12-07T05:24:13;96283.97;;;3.06;82.59
10992;BME280;5549;47.028;15.514;2022-12-07T05:26:44;96282.69;;;2.99;82.90
10992;BME280;5549;47.028;15.514;2022-12-07T05:29:16;96285.09;;;3.02;82.72
10992;BME280;5549;47.028;15.514;2022-12-07T05:31:44;96286.19;;;2.98;82.69
10992;BME280;5549;47.028;15.514;2022-12-07T05:34:12;96293.41;;;2.93;82.83
10992;BME280;5549;47.028;15.514;2022-12-07T05:36:43;96284.53;;;2.97;83.01
10992;BME280;5549;47.028;15.514;2022-12-07T05:39:15;96286.19;;;2.98;82.95
10992;BME280;5549;47.028;15.514;2022-12-07T05:41:43;96286.19;;;2.98;82.76
10992;BME280;5549;47.028;15.514;2022-12-07T05:44:29;96287.28;;;2.94;82.73
10992;BME280;5549;47.028;15.514;2022-12-07T05:46:57;96288.56;;;2.86;82.57
10992;BME280;5549;47.028;15.514;2022-12-07T05:49:24;96292.63;;;2.76;82.66
10992;BME280;5549;47.028;15.514;2022-12-07T05:51:53;96285.75;;;2.75;82.84
10992;BME280;5549;47.028;15.514;2022-12-07T05:54:26;96288.09;;;2.80;82.77
10992;BME280;5549;47.028;15.514;2022-12-07T05:56:57;96296.19;;;2.89;82.89
10992;BME280;5549;47.028;15.514;2022-12-07T05:59:25;96298.41;;;2.96;82.72
10992;BME280;5549;47.028;15.514;2022-12-07T06:01:56;96297.66;;;2.94;82.59
10992;BME280;5549;47.028;15.514;2022-12-07T06:04:26;96302.81;;;2.79;82.54
10992;BME280;5549;47.028;15.514;2022-12-07T06:06:56;96299.78;;;2.57;82.78
10992;BME280;5549;47.028;15.514;2022-12-07T06:09:28;96298.84;;;2.58;82.81
10992;BME280;5549;47.028;15.514;2022-12-07T06:11:57;96305.72;;;2.59;83.25
10992;BME280;5549;47.028;15.514;2022-12-07T06:14:43;96305.38;;;2.65;83.16
10992;BME280;5549;47.028;15.514;2022-12-07T06:17:11;96305.84;;;2.72;83.02
10992;BME280;5549;47.028;15.514;2022-12-07T06:19:40;96313.38;;;2.76;82.52
10992;BME280;5549;47.028;15.514;2022-12-07T06:22:08;96318.94;;;2.84;83.11
10992;BME280;5549;47.028;15.514;2022-12-07T06:24:39;96317.66;;;2.92;82.60
10992;BME280;5549;47.028;15.514;2022-12-07T06:27:07;96315.81;;;2.94;82.42
10992;BME280;5549;47.028;15.514;2022-12-07T06:29:35;96320.84;;;2.97;82.67
10992;BME280;5549;47.028;15.514;2022-12-07T06:32:03;96314.53;;;3.01;82.42
10992;BME280;5549;47.028;15.514;2022-12-07T06:34:31;96314.19;;;3.07;82.40
10992;BME280;5549;47.028;15.514;2022-12-07T06:36:59;96320.31;;;3.06;81.94
10992;BME280;5549;47.028;15.514;2022-12-07T06:39:30;96325.50;;;3.06;82.36
10992;BME280;5549;47.028;15.514;2022-12-07T06:42:01;96324.28;;;3.11;82.22
10992;BME280;5549;47.028;15.514;2022-12-07T06:44:31;96328.47;;;3.14;82.05
10992;BME280;5549;47.028;15.514;2022-12-07T06:46:59;96335.69;;;3.09;81.76
10992;BME280;5549;47.028;15.514;2022-12-07T06:49:27;96338.38;;;3.07;81.45
10992;BME280;5549;47.028;15.514;2022-12-07T06:51:56;96330.84;;;3.03;81.60
10992;BME280;5549;47.028;15.514;2022-12-07T06:54:24;96337.88;;;3.01;81.68
10992;BME280;5549;47.028;15.514;2022-12-07T06:56:51;96343.06;;;3.01;81.90
10992;BME280;5549;47.028;15.514;2022-12-07T06:59:20;96348.09;;;3.04;81.63
10992;BME280;5549;47.028;15.514;2022-12-07T07:01:50;96346.06;;;3.09;81.57
10992;BME280;5549;47.028;15.514;2022-12-07T07:04:18;96358.78;;;3.13;81.61
10992;BME280;5549;47.028;15.514;2022-12-07T07:06:46;96344.59;;;3.49;83.55
10992;BME280;5549;47.028;15.514;2022-12-07T07:09:13;96342.47;;;3.98;85.57
10992;BME280;5549;47.028;15.514;2022-12-07T07:11:43;96335.97;;;4.46;86.96
10992;BME280;5549;47.028;15.514;2022-12-07T07:14:11;96339.06;;;4.93;87.46
10992;BME280;5549;47.028;15.514;2022-12-07T07:16:40;96338.13;;;5.33;88.20
10992;BME280;5549;47.028;15.514;2022-12-07T07:19:07;96339.19;;;5.69;87.92
10992;BME280;5549;47.028;15.514;2022-12-07T07:21:35;96334.72;;;5.96;88.59
10992;BME280;5549;47.028;15.514;2022-12-07T07:24:07;96332.38;;;6.17;88.56
10992;BME280;5549;47.028;15.514;2022-12-07T07:26:37;96331.91;;;6.36;87.25
10992;BME280;5549;47.028;15.514;2022-12-07T07:29:04;96332.72;;;6.49;86.83
10992;BME280;5549;47.028;15.514;2022-12-07T07:31:34;96338.22;;;6.57;84.72
10992;BME280;5549;47.028;15.514;2022-12-07T07:34:04;96339.22;;;6.31;81.26
10992;BME280;5549;47.028;15.514;2022-12-07T07:36:33;96332.41;;;6.04;80.74
10992;BME280;5549;47.028;15.514;2022-12-07T07:39:03;96330.63;;;5.79;79.69
10992;BME280;5549;47.028;15.514;2022-12-07T07:41:44;96339.91;;;5.58;79.39
10992;BME280;5549;47.028;15.514;2022-12-07T07:44:11;96341.69;;;5.45;79.05
10992;BME280;5549;47.028;15.514;2022-12-07T07:46:39;96342.91;;;5.27;77.79
10992;BME280;5549;47.028;15.514;2022-12-07T07:49:09;96356.81;;;5.13;78.11
10992;BME280;5549;47.028;15.514;2022-12-07T07:51:37;96349.56;;;4.91;76.96
10992;BME280;5549;47.028;15.514;2022-12-07T07:54:04;96354.00;;;4.76;77.20
10992;BME280;5549;47.028;15.514;2022-12-07T07:56:32;96354.69;;;4.66;77.77
10992;BME280;5549;47.028;15.514;2022-12-07T07:59:00;96355.47;;;4.54;77.27
10992;BME280;5549;47.028;15.514;2022-12-07T08:01:29;96356.78;;;4.46;77.86
10992;BME280;5549;47.028;15.514;2022-12-07T08:04:00;96360.78;;;4.38;78.16
10992;BME280;5549;47.028;15.514;2022-12-07T08:06:29;96358.22;;;4.24;77.49
10992;BME280;5549;47.028;15.514;2022-12-07T08:09:00;96360.66;;;4.12;77.59
10992;BME280;5549;47.028;15.514;2022-12-07T08:11:27;96360.84;;;4.09;78.09
10992;BME280;5549;47.028;15.514;2022-12-07T08:13:57;96357.69;;;4.04;78.08
10992;BME280;5549;47.028;15.514;2022-12-07T08:16:25;96355.63;;;4.09;78.79
10992;BME280;5549;47.028;15.514;2022-12-07T08:18:53;96358.59;;;4.17;78.81
10992;BME280;5549;47.028;15.514;2022-12-07T08:21:20;96358.22;;;4.24;78.94
10992;BME280;5549;47.028;15.514;2022-12-07T08:23:49;96358.59;;;4.17;78.09
10992;BME280;5549;47.028;15.514;2022-12-07T08:26:17;96358.88;;;4.13;78.49
10992;BME280;5549;47.028;15.514;2022-12-07T08:28:47;96362.97;;;4.17;78.66
10992;BME280;5549;47.028;15.514;2022-12-07T08:31:17;96368.81;;;4.21;78.42
10992;BME280;5549;47.028;15.514;2022-12-07T08:33:45;96367.97;;;4.20;78.36
10992;BME280;5549;47.028;15.514;2022-12-07T08:36:13;96371.03;;;4.27;79.03
10992;BME280;5549;47.028;15.514;2022-12-07T08:38:41;96372.13;;;4.37;79.04
10992;BME280;5549;47.028;15.514;2022-12-07T08:41:11;96376.19;;;4.41;78.94
10992;BME280;5549;47.028;15.514;2022-12-07T08:43:41;96379.72;;;4.40;78.97
10992;BME280;5549;47.028;15.514;2022-12-07T08:46:11;96384.13;;;4.25;78.68
10992;BME280;5549;47.028;15.514;2022-12-07T08:48:46;96380.03;;;4.21;78.93
10992;BME280;5549;47.028;15.514;2022-12-07T08:51:18;96386.06;;;4.22;79.02
10992;BME280;5549;47.028;15.514;2022-12-07T08:53:47;96378.44;;;4.33;79.26
10992;BME280;5549;47.028;15.514;2022-12-07T08:56:19;96382.72;;;4.34;79.63
10992;BME280;5549;47.028;15.514;2022-12-07T08:58:48;96395.81;;;4.32;79.83
10992;BME280;5549;47.028;15.514;2022-12-07T09:01:15;96401.09;;;4.31;79.29
10992;BME280;5549;47.028;15.514;2022-12-07T09:03:43;96406.09;;;4.34;79.42
10992;BME280;5549;47.028;15.514;2022-12-07T09:06:10;96404.16;;;4.37;79.30
10992;BME280;5549;47.028;15.514;2022-12-07T09:08:46;96404.97;;;4.38;79.50
10992;BME280;5549;47.028;15.514;2022-12-07T09:11:14;96402.75;;;4.46;79.73
10992;BME280;5549;47.028;15.514;2022-12-07T09:13:43;96397.91;;;4.54;79.46
10992;BME280;5549;47.028;15.514;2022-12-07T09:16:10;96399.00;;;4.64;79.41
10992;BME280;5549;47.028;15.514;2022-12-07T09:18:40;96399.19;;;4.61;78.96
10992;BME280;5549;47.028;15.514;2022-12-07T09:21:11;96400.84;;;4.62;79.40
10992;BME280;5549;47.028;15.514;2022-12-07T09:23:39;96398.34;;;4.61;79.28
10992;BME280;5549;47.028;15.514;2022-12-07T09:26:10;96392.31;;;4.60;79.28
10992;BME280;5549;47.028;15.514;2022-12-07T09:28:38;96397.31;;;4.63;79.11
10992;BME280;5549;47.028;15.514;2022-12-07T09:31:08;96395.28;;;4.54;78.94
10992;BME280;5549;47.028;15.514;2022-12-07T09:33:38;96396.22;;;4.53;79.27
10992;BME280;5549;47.028;15.514;2022-12-07T09:36:08;96390.44;;;4.62;79.77
10992;BME280;5549;47.028;15.514;2022-12-07T09:38:36;96396.72;;;4.72;79.76
10992;BME280;5549;47.028;15.514;2022-12-07T09:41:07;96391.16;;;4.78;79.40
10992;BME280;5549;47.028;15.514;2022-12-07T09:43:39;96384.06;;;4.80;79.12
10992;BME280;5549;47.028;15.514;2022-12-07T09:46:14;96388.50;;;4.93;79.12
10992;BME280;5549;47.028;15.514;2022-12-07T09:48:44;96380.50;;;4.96;79.09
10992;BME280;5549;47.028;15.514;2022-12-07T09:51:17;96377.28;;;5.05;79.35
10992;BME280;5549;47.028;15.514;2022-12-07T09:53:45;96381.69;;;5.17;79.48
10992;BME280;5549;47.028;15.514;2022-12-07T09:56:15;96376.84;;;5.25;78.91
10992;BME280;5549;47.028;15.514;2022-12-07T09:58:45;96373.78;;;5.19;78.51
10992;BME280;5549;47.028;15.514;2022-12-07T10:01:16;96370.91;;;5.23;78.86
10992;BME280;5549;47.028;15.514;2022-12-07T10:03:51;96371.97;;;5.33;78.79
10992;BME280;5549;47.028;15.514;2022-12-07T10:06:23;96365.00;;;5.46;78.35
10992;BME280;5549;47.028;15.514;2022-12-07T10:08:50;96363.88;;;5.51;77.76
10992;BME280;5549;47.028;15.514;2022-12-07T10:11:19;96354.59;;;5.46;78.24
10992;BME280;5549;47.028;15.514;2022-12-07T10:13:52;96357.19;;;5.46;78.28
10992;BME280;5549;47.028;15.514;2022-12-07T10:16:38;96358.88;;;5.47;78.01
10992;BME280;5549;47.028;15.514;2022-12-07T10:19:22;96368.25;;;5.50;77.96
10992;BME280;5549;47.028;15.514;2022-12-07T10:22:10;96358.88;;;5.47;77.83
10992;BME280;5549;47.028;15.514;2022-12-07T10:24:40;96353.13;;;5.42;78.00
10992;BME280;5549;47.028;15.514;2022-12-07T10:27:20;96356.34;;;5.33;78.13
10992;BME280;5549;47.028;15.514;2022-12-07T10:29:52;96354.47;;;5.23;77.74
10992;BME280;5549;47.028;15.514;2022-12-07T10:32:34;96361.53;;;5.21;77.96
10992;BME280;5549;47.028;15.514;2022-12-07T10:35:25;96359.72;;;5.08;78.78
10992;BME280;5549;47.028;15.514;2022-12-07T10:37:55;96356.28;;;5.08;78.91
10992;BME280;5549;47.028;15.514;2022-12-07T10:40:29;96356.28;;;5.08;78.46
10992;BME280;5549;47.028;15.514;2022-12-07T10:43:04;96350.34;;;5.06;78.54
10992;BME280;5549;47.028;15.514;2022-12-07T10:45:34;96345.66;;;5.11;78.91
10992;BME280;5549;47.028;15.514;2022-12-07T10:48:11;96347.22;;;5.13;78.50
10992;BME280;5549;47.028;15.514;2022-12-07T10:51:02;96348.78;;;5.16;78.25
10992;BME280;5549;47.028;15.514;2022-12-07T10:53:47;96345.09;;;5.20;78.04
10992;BME280;5549;47.028;15.514;2022-12-07T10:56:46;96330.72;;;5.27;78.32
10992;BME280;5549;47.028;15.514;2022-12-07T10:59:40;96331.16;;;5.34;78.77
10992;BME280;5549;47.028;15.514;2022-12-07T11:02:39;96333.56;;;5.50;78.30
10992;BME280;5549;47.028;15.514;2022-12-07T11:05:19;96332.00;;;5.60;78.31
10992;BME280;5549;47.028;15.514;2022-12-07T11:08:00;96324.50;;;5.68;78.90
10992;BME280;5549;47.028;15.514;2022-12-07T11:10:39;96333.66;;;5.73;78.04
10992;BME280;5549;47.028;15.514;2022-12-07T11:13:29;96331.25;;;5.70;78.70
10992;BME280;5549;47.028;15.514;2022-12-07T11:16:26;96330.31;;;5.84;79.01
10992;BME280;5549;47.028;15.514;2022-12-07T11:19:13;96322.63;;;5.95;78.10
10992;BME280;5549;47.028;15.514;2022-12-07T11:21:55;96322.38;;;6.11;78.51
10992;BME280;5549;47.028;15.514;2022-12-07T11:24:30;96320.47;;;6.26;78.29
10992;BME280;5549;47.028;15.514;2022-12-07T11:27:14;96317.22;;;6.35;78.22
10992;BME280;5549;47.028;15.514;2022-12-07T11:30:11;96317.56;;;6.54;78.94
10992;BME280;5549;47.028;15.514;2022-12-07T11:32:55;96311.50;;;6.78;78.16
10992;BME280;5549;47.028;15.514;2022-12-07T11:35:36;96309.25;;;6.97;77.85
10992;BME280;5549;47.028;15.514;2022-12-07T11:38:15;96309.28;;;7.08;77.43
10992;BME280;5549;47.028;15.514;2022-12-07T11:40:46;96308.94;;;7.13;76.99
10992;BME280;5549;47.028;15.514;2022-12-07T11:43:24;96296.50;;;7.16;76.75
10992;BME280;5549;47.028;15.514;2022-12-07T11:46:02;96298.97;;;6.83;75.05
10992;BME280;5549;47.028;15.514;2022-12-07T11:48:35;96294.19;;;6.76;74.52
10992;BME280;5549;47.028;15.514;2022-12-07T11:51:11;96300.63;;;6.84;75.10
10992;BME280;5549;47.028;15.514;2022-12-07T11:53:48;96296.63;;;6.91;75.26
10992;BME280;5549;47.028;15.514;2022-12-07T11:56:21;96293.75;;;6.83;74.67
10992;BME280;5549;47.028;15.514;2022-12-07T11:58:56;96289.00;;;6.88;74.80
10992;BME280;5549;47.028;15.514;2022-12-07T12:01:45;96293.50;;;6.86;75.04
10992;BME280;5549;47.028;15.514;2022-12-07T12:04:30;96291.13;;;6.83;75.47
10992;BME280;5549;47.028;15.514;2022-12-07T12:07:00;96293.34;;;6.76;75.30
10992;BME280;5549;47.028;15.514;2022-12-07T12:09:34;96293.13;;;6.79;75.53
10992;BME280;5549;47.028;15.514;2022-12-07T12:12:31;96289.34;;;6.83;75.99
10992;BME280;5549;47.028;15.514;2022-12-07T12:15:17;96288.41;;;6.84;76.08
10992;BME280;5549;47.028;15.514;2022-12-07T12:18:31;96281.63;;;6.82;75.57
10992;BME280;5549;47.028;15.514;2022-12-07T12:21:07;96277.22;;;6.95;76.12
10992;BME280;5549;47.028;15.514;2022-12-07T12:23:41;96280.22;;;7.13;76.52
10992;BME280;5549;47.028;15.514;2022-12-07T12:26:18;96264.97;;;7.42;76.35
10992;BME280;5549;47.028;15.514;2022-12-07T12:28:54;96272.81;;;7.53;75.37
10992;BME280;5549;47.028;15.514;2022-12-07T12:31:37;96271.66;;;7.68;75.76
10992;BME280;5549;47.028;15.514;2022-12-07T12:34:32;96264.53;;;7.81;75.40
10992;BME280;5549;47.028;15.514;2022-12-07T12:37:02;96252.16;;;7.83;75.02
10992;BME280;5549;47.028;15.514;2022-12-07T12:39:37;96264.53;;;7.70;74.23
10992;BME280;5549;47.028;15.514;2022-12-07T12:42:18;96260.25;;;7.58;73.78
10992;BME280;5549;47.028;15.514;2022-12-07T12:45:17;96263.78;;;7.46;73.33
10992;BME280;5549;47.028;15.514;2022-12-07T12:47:56;96259.50;;;7.45;72.99
10992;BME280;5549;47.028;15.514;2022-12-07T12:50:30;96264.75;;;7.56;73.61
10992;BME280;5549;47.028;15.514;2022-12-07T12:53:22;96269.16;;;7.66;73.62
10992;BME280;5549;47.028;15.514;2022-12-07T12:56:26;96266.19;;;7.71;73.77
10992;BME280;5549;47.028;15.514;2022-12-07T12:59:25;96274.50;;;7.76;73.90
10992;BME280;5549;47.028;15.514;2022-12-07T13:01:56;96273.19;;;7.82;74.43
10992;BME280;5549;47.028;15.514;2022-12-07T13:04:51;96275.56;;;7.85;74.03
10992;BME280;5549;47.028;15.514;2022-12-07T13:07:54;96268.06;;;7.58;73.38
10992;BME280;5549;47.028;15.514;2022-12-07T13:10:44;96271.81;;;7.20;73.27
10992;BME280;5549;47.028;15.514;2022-12-07T13:13:32;96267.97;;;7.02;74.48
10992;BME280;5549;47.028;15.514;2022-12-07T13:16:40;96272.47;;;7.00;74.10
10992;BME280;5549;47.028;15.514;2022-12-07T13:19:56;96271.16;;;6.94;75.12
10992;BME280;5549;47.028;15.514;2022-12-07T13:22:44;96272.63;;;6.86;74.86
10992;BME280;5549;47.028;15.514;2022-12-07T13:25:38;96268.09;;;6.76;75.31
10992;BME280;5549;47.028;15.514;2022-12-07T13:28:16;96268.31;;;6.73;74.93
10992;BME280;5549;47.028;15.514;2022-12-07T13:31:04;96273.31;;;6.76;75.34
10992;BME280;5549;47.028;15.514;2022-12-07T13:33:44;96272.47;;;6.76;75.04
10992;BME280;5549;47.028;15.514;2022-12-07T13:36:21;96270.72;;;6.76;75.20
10992;BME280;5549;47.028;15.514;2022-12-07T13:38:53;96268.09;;;6.76;75.77
10992;BME280;5549;47.028;15.514;2022-12-07T13:41:25;96273.31;;;6.76;75.63
10992;BME280;5549;47.028;15.514;2022-12-07T13:44:00;96282.47;;;6.82;75.69
10992;BME280;5549;47.028;15.514;2022-12-07T13:46:50;96277.84;;;6.86;75.66
10992;BME280;5549;47.028;15.514;2022-12-07T13:49:24;96275.38;;;6.84;75.73